PWSweather.com
Personal Weather Stations
Station Observations
GIRWX1
Presovsky Kraj, GiraltovceSK

Presovsky KrajGiraltovceSK

Lat: 49.118, Lon: 21.52

Elevation: 630

Station Type: wh1080

http://www.meteogiraltovce.wz.cz/

High Low Average
Temperature 61.5°F16.4°C 38.7°F3.7°C 47.4°F8.6°C
Dew Point 47.8°F8.8°C 34.3°F1.3°C 39.8°F4.3°C
Winds 17.0 mph 27.4 kmh Calm Calm 2.0 mph ESE3.2 kmh ESE
Wind Gusts 24.4 mph39.3 kmh -- 4.0 mph6.4 kmh
Humidity 91% 46% 77%
Pressure 30.13 in1020.3 mb 30.00 in1015.9 mb -
Precipitation 0.00 in0.0 mm - -
Hour Temp Dew Point Humidity Winds Wind Gusts Pressure Precip Precip Rate Daily Precip Total
12:00 AM 45.9°F7.7°C 40.4°F4.7°C 81% 0.4 mph NE0.6 kmh NE 1.6 mph2.6 kmh 30.11 in1019.6 mb 0.00 in0.0 mm 0.00 in0.0 mm 0.00 in0.0 mm
12:05 AM 45.9°F7.7°C 40.4°F4.7°C 81% 0.7 mph NE1.1 kmh NE 1.6 mph2.6 kmh 30.11 in1019.6 mb 0.00 in0.0 mm 0.00 in0.0 mm 0.00 in0.0 mm
12:10 AM 45.9°F7.7°C 40.4°F4.7°C 81% 1.1 mph NE1.8 kmh NE 2.2 mph3.5 kmh 30.11 in1019.6 mb 0.00 in0.0 mm 0.00 in0.0 mm 0.00 in0.0 mm
12:15 AM 45.9°F7.7°C 40.4°F4.7°C 81% 1.6 mph NE2.6 kmh NE 3.1 mph5.0 kmh 30.11 in1019.6 mb 0.00 in0.0 mm 0.00 in0.0 mm 0.00 in0.0 mm
12:20 AM 46.0°F7.8°C 40.7°F4.8°C 81% 1.6 mph NNE2.6 kmh NNE 2.2 mph3.5 kmh 30.11 in1019.6 mb 0.00 in0.0 mm 0.00 in0.0 mm 0.00 in0.0 mm
12:25 AM 46.0°F7.8°C 40.8°F4.9°C 82% 0.2 mph W0.3 kmh W 1.6 mph2.6 kmh 30.11 in1019.6 mb 0.00 in0.0 mm 0.00 in0.0 mm 0.00 in0.0 mm
12:30 AM 45.9°F7.7°C 40.7°F4.8°C 82% Calm Calm -- 30.11 in1019.6 mb 0.00 in0.0 mm 0.00 in0.0 mm 0.00 in0.0 mm
12:35 AM 45.7°F7.6°C 42.0°F5.6°C 87% Calm Calm -- 30.11 in1019.6 mb 0.00 in0.0 mm 0.00 in0.0 mm 0.00 in0.0 mm
12:40 AM 45.4°F7.4°C 41.8°F5.4°C 87% Calm Calm -- 30.11 in1019.6 mb 0.00 in0.0 mm 0.00 in0.0 mm 0.00 in0.0 mm
12:45 AM 45.2°F7.3°C 41.4°F5.2°C 86% Calm Calm -- 30.11 in1019.6 mb 0.00 in0.0 mm 0.00 in0.0 mm 0.00 in0.0 mm
12:50 AM 45.1°F7.3°C 41.2°F5.1°C 86% Calm Calm -- 30.11 in1019.6 mb 0.00 in0.0 mm 0.00 in0.0 mm 0.00 in0.0 mm
12:55 AM 45.1°F7.3°C 41.2°F5.1°C 86% 0.1 mph W0.2 kmh W 1.6 mph2.6 kmh 30.11 in1019.6 mb 0.00 in0.0 mm 0.00 in0.0 mm 0.00 in0.0 mm
01:00 AM 45.1°F7.3°C 41.2°F5.1°C 86% 0.3 mph 0.5 kmh 1.6 mph2.6 kmh 30.11 in1019.6 mb 0.00 in0.0 mm 0.00 in0.0 mm 0.00 in0.0 mm
01:05 AM 45.1°F7.3°C 41.2°F5.1°C 86% 0.4 mph 0.6 kmh 1.6 mph2.6 kmh 30.11 in1019.6 mb 0.00 in0.0 mm 0.00 in0.0 mm 0.00 in0.0 mm
01:10 AM 45.1°F7.3°C 41.1°F5.1°C 86% Calm Calm 0.7 mph1.1 kmh 30.11 in1019.6 mb 0.00 in0.0 mm 0.00 in0.0 mm 0.00 in0.0 mm
01:15 AM 45.0°F7.2°C 41.0°F5.0°C 86% 0.1 mph E0.2 kmh E 0.7 mph1.1 kmh 30.11 in1019.6 mb 0.00 in0.0 mm 0.00 in0.0 mm 0.00 in0.0 mm
01:20 AM 44.9°F7.2°C 40.9°F4.9°C 86% 1.2 mph NNE1.9 kmh NNE 2.2 mph3.5 kmh 30.11 in1019.6 mb 0.00 in0.0 mm 0.00 in0.0 mm 0.00 in0.0 mm
01:25 AM 44.6°F7.0°C 40.7°F4.8°C 86% 0.8 mph 1.3 kmh 1.6 mph2.6 kmh 30.11 in1019.6 mb 0.00 in0.0 mm 0.00 in0.0 mm 0.00 in0.0 mm
01:30 AM 44.5°F6.9°C 40.6°F4.8°C 86% 1.3 mph N2.1 kmh N 2.2 mph3.5 kmh 30.11 in1019.6 mb 0.00 in0.0 mm 0.00 in0.0 mm 0.00 in0.0 mm
01:35 AM 44.4°F6.9°C 40.5°F4.7°C 86% 1.1 mph N1.8 kmh N 2.2 mph3.5 kmh 30.11 in1019.6 mb 0.00 in0.0 mm 0.00 in0.0 mm 0.00 in0.0 mm
01:40 AM 44.3°F6.8°C 40.4°F4.7°C 86% 0.9 mph NE1.4 kmh NE 2.2 mph3.5 kmh 30.11 in1019.6 mb 0.00 in0.0 mm 0.00 in0.0 mm 0.00 in0.0 mm
01:45 AM 44.0°F6.7°C 40.1°F4.5°C 86% 2.2 mph NE3.5 kmh NE 3.8 mph6.1 kmh 30.11 in1019.6 mb 0.00 in0.0 mm 0.00 in0.0 mm 0.00 in0.0 mm
01:50 AM 43.9°F6.6°C 40.0°F4.4°C 86% 3.8 mph NE6.1 kmh NE 5.4 mph8.7 kmh 30.11 in1019.6 mb 0.00 in0.0 mm 0.00 in0.0 mm 0.00 in0.0 mm
01:55 AM 43.8°F6.6°C 39.9°F4.4°C 86% 2.6 mph NE4.2 kmh NE 3.8 mph6.1 kmh 30.11 in1019.6 mb 0.00 in0.0 mm 0.00 in0.0 mm 0.00 in0.0 mm
02:00 AM 43.7°F6.5°C 39.8°F4.3°C 86% 3.2 mph NE5.1 kmh NE 4.5 mph7.2 kmh 30.11 in1019.6 mb 0.00 in0.0 mm 0.00 in0.0 mm 0.00 in0.0 mm
02:05 AM 43.7°F6.5°C 40.1°F4.5°C 87% 3.1 mph NE5.0 kmh NE 3.8 mph6.1 kmh 30.11 in1019.6 mb 0.00 in0.0 mm 0.00 in0.0 mm 0.00 in0.0 mm
02:10 AM 43.7°F6.5°C 40.1°F4.5°C 87% 1.8 mph NE2.9 kmh NE 3.8 mph6.1 kmh 30.11 in1019.6 mb 0.00 in0.0 mm 0.00 in0.0 mm 0.00 in0.0 mm
02:15 AM 43.7°F6.5°C 40.1°F4.5°C 87% 0.7 mph ENE1.1 kmh ENE 1.6 mph2.6 kmh 30.11 in1019.6 mb 0.00 in0.0 mm 0.00 in0.0 mm 0.00 in0.0 mm
02:20 AM 43.7°F6.5°C 40.1°F4.5°C 87% 0.8 mph ENE1.3 kmh ENE 2.2 mph3.5 kmh 30.11 in1019.6 mb 0.00 in0.0 mm 0.00 in0.0 mm 0.00 in0.0 mm
02:25 AM 43.7°F6.5°C 40.2°F4.6°C 87% 0.4 mph NE0.6 kmh NE 1.6 mph2.6 kmh 30.11 in1019.6 mb 0.00 in0.0 mm 0.00 in0.0 mm 0.00 in0.0 mm
02:30 AM 43.9°F6.6°C 40.6°F4.8°C 88% Calm Calm 0.7 mph1.1 kmh 30.11 in1019.6 mb 0.00 in0.0 mm 0.00 in0.0 mm 0.00 in0.0 mm
02:35 AM 44.2°F6.8°C 40.9°F4.9°C 88% Calm Calm 0.7 mph1.1 kmh 30.11 in1019.6 mb 0.00 in0.0 mm 0.00 in0.0 mm 0.00 in0.0 mm
02:40 AM 44.4°F6.9°C 41.0°F5.0°C 88% Calm Calm 0.7 mph1.1 kmh 30.11 in1019.6 mb 0.00 in0.0 mm 0.00 in0.0 mm 0.00 in0.0 mm
02:45 AM 44.6°F7.0°C 41.4°F5.2°C 88% 0.2 mph 0.3 kmh 1.6 mph2.6 kmh 30.11 in1019.6 mb 0.00 in0.0 mm 0.00 in0.0 mm 0.00 in0.0 mm
02:50 AM 44.6°F7.0°C 41.6°F5.3°C 89% 0.2 mph NE0.3 kmh NE 1.6 mph2.6 kmh 30.11 in1019.6 mb 0.00 in0.0 mm 0.00 in0.0 mm 0.00 in0.0 mm
02:55 AM 44.6°F7.0°C 41.6°F5.3°C 89% 0.9 mph NE1.4 kmh NE 2.2 mph3.5 kmh 30.11 in1019.6 mb 0.00 in0.0 mm 0.00 in0.0 mm 0.00 in0.0 mm
03:00 AM 44.6°F7.0°C 41.6°F5.3°C 89% 0.4 mph 0.6 kmh 1.6 mph2.6 kmh 30.11 in1019.6 mb 0.00 in0.0 mm 0.00 in0.0 mm 0.00 in0.0 mm
03:05 AM 44.6°F7.0°C 41.6°F5.3°C 89% Calm Calm -- 30.10 in1019.3 mb 0.00 in0.0 mm 0.00 in0.0 mm 0.00 in0.0 mm
03:10 AM 44.6°F7.0°C 41.6°F5.3°C 89% Calm Calm -- 30.11 in1019.6 mb 0.00 in0.0 mm 0.00 in0.0 mm 0.00 in0.0 mm
03:15 AM 44.6°F7.0°C 41.5°F5.3°C 89% Calm Calm -- 30.10 in1019.3 mb 0.00 in0.0 mm 0.00 in0.0 mm 0.00 in0.0 mm
03:20 AM 44.4°F6.9°C 41.4°F5.2°C 89% 0.2 mph S0.3 kmh S 1.6 mph2.6 kmh 30.11 in1019.6 mb 0.00 in0.0 mm 0.00 in0.0 mm 0.00 in0.0 mm
03:25 AM 44.4°F6.9°C 41.4°F5.2°C 89% Calm Calm -- 30.11 in1019.6 mb 0.00 in0.0 mm 0.00 in0.0 mm 0.00 in0.0 mm
03:30 AM 44.3°F6.8°C 41.3°F5.2°C 89% 0.1 mph 0.2 kmh 1.6 mph2.6 kmh 30.11 in1019.6 mb 0.00 in0.0 mm 0.00 in0.0 mm 0.00 in0.0 mm
03:35 AM 44.2°F6.8°C 41.2°F5.1°C 89% 0.1 mph 0.2 kmh 1.6 mph2.6 kmh 30.11 in1019.6 mb 0.00 in0.0 mm 0.00 in0.0 mm 0.00 in0.0 mm
03:40 AM 44.2°F6.8°C 41.2°F5.1°C 89% Calm Calm 0.7 mph1.1 kmh 30.10 in1019.3 mb 0.00 in0.0 mm 0.00 in0.0 mm 0.00 in0.0 mm
03:45 AM 44.2°F6.8°C 41.2°F5.1°C 89% 0.2 mph 0.3 kmh 0.7 mph1.1 kmh 30.10 in1019.3 mb 0.00 in0.0 mm 0.00 in0.0 mm 0.00 in0.0 mm
03:50 AM 44.2°F6.8°C 41.2°F5.1°C 89% 0.5 mph NNE0.8 kmh NNE 1.6 mph2.6 kmh 30.11 in1019.6 mb 0.00 in0.0 mm 0.00 in0.0 mm 0.00 in0.0 mm
03:55 AM 44.1°F6.7°C 41.1°F5.1°C 89% 0.3 mph 0.5 kmh 1.6 mph2.6 kmh 30.11 in1019.6 mb 0.00 in0.0 mm 0.00 in0.0 mm 0.00 in0.0 mm
04:00 AM 44.1°F6.7°C 41.0°F5.0°C 89% 0.2 mph NE0.3 kmh NE 1.6 mph2.6 kmh 30.11 in1019.6 mb 0.00 in0.0 mm 0.00 in0.0 mm 0.00 in0.0 mm
04:05 AM 44.1°F6.7°C 41.0°F5.0°C 89% 0.7 mph NE1.1 kmh NE 0.7 mph1.1 kmh 30.11 in1019.6 mb 0.00 in0.0 mm 0.00 in0.0 mm 0.00 in0.0 mm
04:10 AM 44.0°F6.7°C 40.9°F4.9°C 89% 0.3 mph NE0.5 kmh NE 0.7 mph1.1 kmh 30.11 in1019.6 mb 0.00 in0.0 mm 0.00 in0.0 mm 0.00 in0.0 mm
04:15 AM 43.9°F6.6°C 40.9°F4.9°C 89% Calm Calm -- 30.11 in1019.6 mb 0.00 in0.0 mm 0.00 in0.0 mm 0.00 in0.0 mm
04:20 AM 43.9°F6.6°C 40.6°F4.8°C 88% Calm Calm -- 30.11 in1019.6 mb 0.00 in0.0 mm 0.00 in0.0 mm 0.00 in0.0 mm
04:25 AM 43.9°F6.6°C 40.8°F4.9°C 89% Calm Calm -- 30.11 in1019.6 mb 0.00 in0.0 mm 0.00 in0.0 mm 0.00 in0.0 mm
04:30 AM 43.9°F6.6°C 40.9°F4.9°C 89% Calm Calm -- 30.11 in1019.6 mb 0.00 in0.0 mm 0.00 in0.0 mm 0.00 in0.0 mm
04:35 AM 43.9°F6.6°C 40.9°F4.9°C 89% Calm Calm -- 30.11 in1019.6 mb 0.00 in0.0 mm 0.00 in0.0 mm 0.00 in0.0 mm
04:40 AM 43.9°F6.6°C 40.9°F4.9°C 89% 0.3 mph NW0.5 kmh NW 1.6 mph2.6 kmh 30.11 in1019.6 mb 0.00 in0.0 mm 0.00 in0.0 mm 0.00 in0.0 mm
04:45 AM 43.9°F6.6°C 40.9°F4.9°C 89% 0.1 mph NW0.2 kmh NW 0.7 mph1.1 kmh 30.11 in1019.6 mb 0.00 in0.0 mm 0.00 in0.0 mm 0.00 in0.0 mm
04:50 AM 43.8°F6.6°C 40.5°F4.7°C 88% Calm Calm 0.7 mph1.1 kmh 30.11 in1019.6 mb 0.00 in0.0 mm 0.00 in0.0 mm 0.00 in0.0 mm
04:55 AM 43.6°F6.4°C 40.3°F4.6°C 88% 0.1 mph SE0.2 kmh SE 0.7 mph1.1 kmh 30.11 in1019.6 mb 0.00 in0.0 mm 0.00 in0.0 mm 0.00 in0.0 mm
05:00 AM 43.4°F6.3°C 40.1°F4.5°C 88% Calm Calm 0.7 mph1.1 kmh 30.11 in1019.6 mb 0.00 in0.0 mm 0.00 in0.0 mm 0.00 in0.0 mm
05:05 AM 43.2°F6.2°C 39.9°F4.4°C 88% 0.5 mph 0.8 kmh 1.6 mph2.6 kmh 30.11 in1019.6 mb 0.00 in0.0 mm 0.00 in0.0 mm 0.00 in0.0 mm
05:10 AM 43.0°F6.1°C 39.7°F4.3°C 88% 0.7 mph N1.1 kmh N 2.2 mph3.5 kmh 30.11 in1019.6 mb 0.00 in0.0 mm 0.00 in0.0 mm 0.00 in0.0 mm
05:15 AM 43.0°F6.1°C 39.7°F4.3°C 88% 0.3 mph 0.5 kmh 1.6 mph2.6 kmh 30.11 in1019.6 mb 0.00 in0.0 mm 0.00 in0.0 mm 0.00 in0.0 mm
05:20 AM 43.0°F6.1°C 39.7°F4.3°C 88% Calm Calm -- 30.11 in1019.6 mb 0.00 in0.0 mm 0.00 in0.0 mm 0.00 in0.0 mm
05:25 AM 42.9°F6.1°C 39.6°F4.2°C 88% Calm Calm 0.7 mph1.1 kmh 30.11 in1019.6 mb 0.00 in0.0 mm 0.00 in0.0 mm 0.00 in0.0 mm
05:30 AM 42.7°F5.9°C 39.2°F4.0°C 87% Calm Calm 0.7 mph1.1 kmh 30.11 in1019.6 mb 0.00 in0.0 mm 0.00 in0.0 mm 0.00 in0.0 mm
05:35 AM 42.4°F5.8°C 38.8°F3.8°C 87% 0.2 mph W0.3 kmh W 1.6 mph2.6 kmh 30.11 in1019.6 mb 0.00 in0.0 mm 0.00 in0.0 mm 0.00 in0.0 mm
05:40 AM 42.2°F5.7°C 38.6°F3.7°C 87% Calm Calm 0.7 mph1.1 kmh 30.11 in1019.6 mb 0.00 in0.0 mm 0.00 in0.0 mm 0.00 in0.0 mm
05:45 AM 42.1°F5.6°C 38.5°F3.6°C 87% Calm Calm 0.7 mph1.1 kmh 30.11 in1019.6 mb 0.00 in0.0 mm 0.00 in0.0 mm 0.00 in0.0 mm
05:50 AM 42.1°F5.6°C 38.5°F3.6°C 87% 0.6 mph 1.0 kmh 1.6 mph2.6 kmh 30.12 in1020.0 mb 0.00 in0.0 mm 0.00 in0.0 mm 0.00 in0.0 mm
05:55 AM 42.1°F5.6°C 38.5°F3.6°C 87% 0.7 mph 1.1 kmh 1.6 mph2.6 kmh 30.11 in1019.6 mb 0.00 in0.0 mm 0.00 in0.0 mm 0.00 in0.0 mm
06:00 AM 42.3°F5.7°C 38.7°F3.7°C 87% 0.7 mph 1.1 kmh 1.6 mph2.6 kmh 30.11 in1019.6 mb 0.00 in0.0 mm 0.00 in0.0 mm 0.00 in0.0 mm
06:05 AM 42.3°F5.7°C 38.7°F3.7°C 87% 0.7 mph 1.1 kmh 1.6 mph2.6 kmh 30.12 in1020.0 mb 0.00 in0.0 mm 0.00 in0.0 mm 0.00 in0.0 mm
06:10 AM 42.2°F5.7°C 38.6°F3.7°C 87% 1.2 mph NE1.9 kmh NE 2.2 mph3.5 kmh 30.11 in1019.6 mb 0.00 in0.0 mm 0.00 in0.0 mm 0.00 in0.0 mm
06:15 AM 42.0°F5.6°C 38.4°F3.6°C 87% 1.4 mph N2.3 kmh N 2.2 mph3.5 kmh 30.12 in1020.0 mb 0.00 in0.0 mm 0.00 in0.0 mm 0.00 in0.0 mm
06:20 AM 41.7°F5.4°C 38.1°F3.4°C 87% 1.0 mph W1.6 kmh W 3.1 mph5.0 kmh 30.12 in1020.0 mb 0.00 in0.0 mm 0.00 in0.0 mm 0.00 in0.0 mm
06:25 AM 41.4°F5.2°C 37.9°F3.3°C 87% 0.4 mph NE0.6 kmh NE 2.2 mph3.5 kmh 30.12 in1020.0 mb 0.00 in0.0 mm 0.00 in0.0 mm 0.00 in0.0 mm
06:30 AM 41.1°F5.1°C 37.5°F3.1°C 87% 1.1 mph NNE1.8 kmh NNE 2.2 mph3.5 kmh 30.12 in1020.0 mb 0.00 in0.0 mm 0.00 in0.0 mm 0.00 in0.0 mm
06:35 AM 40.9°F4.9°C 37.2°F2.9°C 86% 0.2 mph 0.3 kmh 1.6 mph2.6 kmh 30.13 in1020.3 mb 0.00 in0.0 mm 0.00 in0.0 mm 0.00 in0.0 mm
06:40 AM 40.8°F4.9°C 37.0°F2.8°C 86% 0.8 mph NE1.3 kmh NE 2.2 mph3.5 kmh 30.12 in1020.0 mb 0.00 in0.0 mm 0.00 in0.0 mm 0.00 in0.0 mm
06:45 AM 40.8°F4.9°C 37.0°F2.8°C 86% 1.2 mph NE1.9 kmh NE 2.2 mph3.5 kmh 30.12 in1020.0 mb 0.00 in0.0 mm 0.00 in0.0 mm 0.00 in0.0 mm
06:50 AM 40.7°F4.8°C 36.9°F2.7°C 86% 0.5 mph NE0.8 kmh NE 1.6 mph2.6 kmh 30.13 in1020.3 mb 0.00 in0.0 mm 0.00 in0.0 mm 0.00 in0.0 mm
06:55 AM 40.6°F4.8°C 37.1°F2.8°C 87% 1.3 mph NE2.1 kmh NE 2.2 mph3.5 kmh 30.12 in1020.0 mb 0.00 in0.0 mm 0.00 in0.0 mm 0.00 in0.0 mm
07:00 AM 40.6°F4.8°C 37.1°F2.8°C 87% 1.3 mph NE2.1 kmh NE 2.2 mph3.5 kmh 30.12 in1020.0 mb 0.00 in0.0 mm 0.00 in0.0 mm 0.00 in0.0 mm
07:05 AM 40.6°F4.8°C 37.1°F2.8°C 87% 1.5 mph NE2.4 kmh NE 2.2 mph3.5 kmh 30.13 in1020.3 mb 0.00 in0.0 mm 0.00 in0.0 mm 0.00 in0.0 mm
07:10 AM 40.6°F4.8°C 37.1°F2.8°C 87% 0.8 mph NE1.3 kmh NE 2.2 mph3.5 kmh 30.13 in1020.3 mb 0.00 in0.0 mm 0.00 in0.0 mm 0.00 in0.0 mm
07:15 AM 40.7°F4.8°C 37.1°F2.8°C 87% 1.2 mph NE1.9 kmh NE 2.2 mph3.5 kmh 30.13 in1020.3 mb 0.00 in0.0 mm 0.00 in0.0 mm 0.00 in0.0 mm
07:20 AM 40.8°F4.9°C 37.3°F2.9°C 87% 1.6 mph NE2.6 kmh NE 2.2 mph3.5 kmh 30.13 in1020.3 mb 0.00 in0.0 mm 0.00 in0.0 mm 0.00 in0.0 mm
07:25 AM 40.8°F4.9°C 37.3°F2.9°C 87% 0.4 mph NE0.6 kmh NE 1.6 mph2.6 kmh 30.13 in1020.3 mb 0.00 in0.0 mm 0.00 in0.0 mm 0.00 in0.0 mm
07:30 AM 40.8°F4.9°C 37.3°F2.9°C 87% 0.9 mph NE1.4 kmh NE 2.2 mph3.5 kmh 30.13 in1020.3 mb 0.00 in0.0 mm 0.00 in0.0 mm 0.00 in0.0 mm
07:35 AM 40.9°F4.9°C 37.4°F3.0°C 87% 0.4 mph NE0.6 kmh NE 2.2 mph3.5 kmh 30.13 in1020.3 mb 0.00 in0.0 mm 0.00 in0.0 mm 0.00 in0.0 mm
07:40 AM 41.0°F5.0°C 37.4°F3.0°C 87% Calm Calm 0.7 mph1.1 kmh 30.13 in1020.3 mb 0.00 in0.0 mm 0.00 in0.0 mm 0.00 in0.0 mm
07:45 AM 41.0°F5.0°C 37.5°F3.1°C 87% Calm Calm 0.7 mph1.1 kmh 30.13 in1020.3 mb 0.00 in0.0 mm 0.00 in0.0 mm 0.00 in0.0 mm
07:50 AM 41.2°F5.1°C 37.9°F3.3°C 88% 0.3 mph E0.5 kmh E 1.6 mph2.6 kmh 30.13 in1020.3 mb 0.00 in0.0 mm 0.00 in0.0 mm 0.00 in0.0 mm
07:55 AM 41.4°F5.2°C 38.1°F3.4°C 88% 0.2 mph NE0.3 kmh NE 1.6 mph2.6 kmh 30.13 in1020.3 mb 0.00 in0.0 mm 0.00 in0.0 mm 0.00 in0.0 mm
08:00 AM 41.4°F5.2°C 38.2°F3.4°C 88% 0.4 mph NE0.6 kmh NE 1.6 mph2.6 kmh 30.13 in1020.3 mb 0.00 in0.0 mm 0.00 in0.0 mm 0.00 in0.0 mm
08:05 AM 41.5°F5.3°C 38.3°F3.5°C 88% 0.7 mph NE1.1 kmh NE 1.6 mph2.6 kmh 30.13 in1020.3 mb 0.00 in0.0 mm 0.00 in0.0 mm 0.00 in0.0 mm
08:10 AM 41.6°F5.3°C 38.4°F3.6°C 88% 0.5 mph NE0.8 kmh NE 1.6 mph2.6 kmh 30.13 in1020.3 mb 0.00 in0.0 mm 0.00 in0.0 mm 0.00 in0.0 mm
08:15 AM 41.9°F5.5°C 38.6°F3.7°C 88% 0.2 mph SE0.3 kmh SE 1.6 mph2.6 kmh 30.13 in1020.3 mb 0.00 in0.0 mm 0.00 in0.0 mm 0.00 in0.0 mm
08:20 AM 42.0°F5.6°C 38.9°F3.8°C 88% Calm Calm 0.7 mph1.1 kmh 30.13 in1020.3 mb 0.00 in0.0 mm 0.00 in0.0 mm 0.00 in0.0 mm
08:25 AM 42.2°F5.7°C 39.2°F4.0°C 89% 0.2 mph WNW0.3 kmh WNW 1.6 mph2.6 kmh 30.13 in1020.3 mb 0.00 in0.0 mm 0.00 in0.0 mm 0.00 in0.0 mm
08:30 AM 42.3°F5.7°C 39.3°F4.1°C 89% 0.3 mph SW0.5 kmh SW 1.6 mph2.6 kmh 30.13 in1020.3 mb 0.00 in0.0 mm 0.00 in0.0 mm 0.00 in0.0 mm
08:35 AM 42.4°F5.8°C 39.4°F4.1°C 89% Calm Calm 0.7 mph1.1 kmh 30.13 in1020.3 mb 0.00 in0.0 mm 0.00 in0.0 mm 0.00 in0.0 mm
08:40 AM 42.5°F5.8°C 39.5°F4.2°C 89% Calm Calm 0.7 mph1.1 kmh 30.13 in1020.3 mb 0.00 in0.0 mm 0.00 in0.0 mm 0.00 in0.0 mm
08:45 AM 42.7°F5.9°C 39.7°F4.3°C 89% 0.4 mph SSE0.6 kmh SSE 1.6 mph2.6 kmh 30.13 in1020.3 mb 0.00 in0.0 mm 0.00 in0.0 mm 0.00 in0.0 mm
08:50 AM 43.0°F6.1°C 40.1°F4.5°C 89% Calm Calm 0.7 mph1.1 kmh 30.13 in1020.3 mb 0.00 in0.0 mm 0.00 in0.0 mm 0.00 in0.0 mm
08:55 AM 43.2°F6.2°C 40.4°F4.7°C 90% 0.5 mph ESE0.8 kmh ESE 1.6 mph2.6 kmh 30.13 in1020.3 mb 0.00 in0.0 mm 0.00 in0.0 mm 0.00 in0.0 mm
09:00 AM 43.4°F6.3°C 40.6°F4.8°C 90% 0.4 mph SE0.6 kmh SE 1.6 mph2.6 kmh 30.13 in1020.3 mb 0.00 in0.0 mm 0.00 in0.0 mm 0.00 in0.0 mm
09:05 AM 43.6°F6.4°C 40.9°F4.9°C 90% Calm Calm 0.7 mph1.1 kmh 30.13 in1020.3 mb 0.00 in0.0 mm 0.00 in0.0 mm 0.00 in0.0 mm
09:10 AM 43.8°F6.6°C 41.1°F5.1°C 90% 0.3 mph NE0.5 kmh NE 1.6 mph2.6 kmh 30.13 in1020.3 mb 0.00 in0.0 mm 0.00 in0.0 mm 0.00 in0.0 mm
09:15 AM 44.3°F6.8°C 41.5°F5.3°C 90% 0.2 mph NW0.3 kmh NW 1.6 mph2.6 kmh 30.12 in1020.0 mb 0.00 in0.0 mm 0.00 in0.0 mm 0.00 in0.0 mm
09:20 AM 44.5°F6.9°C 41.8°F5.4°C 90% 0.2 mph SW0.3 kmh SW 1.6 mph2.6 kmh 30.12 in1020.0 mb 0.00 in0.0 mm 0.00 in0.0 mm 0.00 in0.0 mm
09:25 AM 44.6°F7.0°C 41.9°F5.5°C 90% 0.3 mph SW0.5 kmh SW 1.6 mph2.6 kmh 30.12 in1020.0 mb 0.00 in0.0 mm 0.00 in0.0 mm 0.00 in0.0 mm
09:30 AM 44.8°F7.1°C 42.3°F5.7°C 91% 0.5 mph SW0.8 kmh SW 2.2 mph3.5 kmh 30.12 in1020.0 mb 0.00 in0.0 mm 0.00 in0.0 mm 0.00 in0.0 mm
09:35 AM 45.0°F7.2°C 42.6°F5.9°C 91% 0.9 mph SW1.4 kmh SW 2.2 mph3.5 kmh 30.12 in1020.0 mb 0.00 in0.0 mm 0.00 in0.0 mm 0.00 in0.0 mm
09:40 AM 45.1°F7.3°C 42.7°F5.9°C 91% 1.1 mph SSW1.8 kmh SSW 2.2 mph3.5 kmh 30.12 in1020.0 mb 0.00 in0.0 mm 0.00 in0.0 mm 0.00 in0.0 mm
09:45 AM 45.1°F7.3°C 42.7°F5.9°C 91% 1.4 mph SSW2.3 kmh SSW 2.2 mph3.5 kmh 30.12 in1020.0 mb 0.00 in0.0 mm 0.00 in0.0 mm 0.00 in0.0 mm
09:50 AM 45.3°F7.4°C 42.8°F6.0°C 91% 1.6 mph WSW2.6 kmh WSW 3.1 mph5.0 kmh 30.12 in1020.0 mb 0.00 in0.0 mm 0.00 in0.0 mm 0.00 in0.0 mm
09:55 AM 45.3°F7.4°C 42.8°F6.0°C 91% 2.3 mph WSW3.7 kmh WSW 3.8 mph6.1 kmh 30.12 in1020.0 mb 0.00 in0.0 mm 0.00 in0.0 mm 0.00 in0.0 mm
10:00 AM 45.3°F7.4°C 42.9°F6.1°C 91% 1.5 mph SSW2.4 kmh SSW 3.8 mph6.1 kmh 30.12 in1020.0 mb 0.00 in0.0 mm 0.00 in0.0 mm 0.00 in0.0 mm
10:05 AM 45.6°F7.6°C 42.9°F6.1°C 90% 0.5 mph WSW0.8 kmh WSW 3.1 mph5.0 kmh 30.11 in1019.6 mb 0.00 in0.0 mm 0.00 in0.0 mm 0.00 in0.0 mm
10:10 AM 46.2°F7.9°C 42.8°F6.0°C 88% 0.7 mph S1.1 kmh S 2.2 mph3.5 kmh 30.11 in1019.6 mb 0.00 in0.0 mm 0.00 in0.0 mm 0.00 in0.0 mm
10:15 AM 47.1°F8.4°C 43.8°F6.6°C 88% 1.8 mph NE2.9 kmh NE 3.1 mph5.0 kmh 30.11 in1019.6 mb 0.00 in0.0 mm 0.00 in0.0 mm 0.00 in0.0 mm
10:20 AM 48.8°F9.3°C 46.0°F7.8°C 90% 1.2 mph ENE1.9 kmh ENE 3.1 mph5.0 kmh 30.11 in1019.6 mb 0.00 in0.0 mm 0.00 in0.0 mm 0.00 in0.0 mm
10:25 AM 49.4°F9.7°C 46.6°F8.1°C 90% 1.1 mph NNE1.8 kmh NNE 3.1 mph5.0 kmh 30.10 in1019.3 mb 0.00 in0.0 mm 0.00 in0.0 mm 0.00 in0.0 mm
10:30 AM 50.0°F10.0°C 47.2°F8.4°C 90% 2.2 mph S3.5 kmh S 3.8 mph6.1 kmh 30.10 in1019.3 mb 0.00 in0.0 mm 0.00 in0.0 mm 0.00 in0.0 mm
10:35 AM 50.5°F10.3°C 46.9°F8.3°C 87% 0.8 mph SE1.3 kmh SE 2.2 mph3.5 kmh 30.10 in1019.3 mb 0.00 in0.0 mm 0.00 in0.0 mm 0.00 in0.0 mm
10:40 AM 51.3°F10.7°C 46.8°F8.2°C 84% 1.2 mph S1.9 kmh S 2.2 mph3.5 kmh 30.09 in1019.0 mb 0.00 in0.0 mm 0.00 in0.0 mm 0.00 in0.0 mm
10:45 AM 53.0°F11.7°C 47.8°F8.8°C 82% 1.3 mph S2.1 kmh S 2.2 mph3.5 kmh 30.09 in1019.0 mb 0.00 in0.0 mm 0.00 in0.0 mm 0.00 in0.0 mm
10:50 AM 54.2°F12.3°C 47.8°F8.8°C 79% 1.1 mph E1.8 kmh E 3.1 mph5.0 kmh 30.08 in1018.6 mb 0.00 in0.0 mm 0.00 in0.0 mm 0.00 in0.0 mm
10:55 AM 55.4°F13.0°C 46.3°F7.9°C 71% 3.7 mph SW6.0 kmh SW 11.4 mph18.3 kmh 30.08 in1018.6 mb 0.00 in0.0 mm 0.00 in0.0 mm 0.00 in0.0 mm
11:00 AM 57.0°F13.9°C 44.2°F6.8°C 62% 9.4 mph S15.1 kmh S 14.5 mph23.3 kmh 30.08 in1018.6 mb 0.00 in0.0 mm 0.00 in0.0 mm 0.00 in0.0 mm
11:05 AM 58.1°F14.5°C 42.9°F6.1°C 57% 12.1 mph S19.5 kmh S 14.5 mph23.3 kmh 30.07 in1018.3 mb 0.00 in0.0 mm 0.00 in0.0 mm 0.00 in0.0 mm
11:10 AM 59.2°F15.1°C 41.4°F5.2°C 52% 12.6 mph S20.3 kmh S 17.4 mph28.0 kmh 30.07 in1018.3 mb 0.00 in0.0 mm 0.00 in0.0 mm 0.00 in0.0 mm
11:15 AM 59.4°F15.2°C 40.9°F4.9°C 50% 12.0 mph S19.3 kmh S 19.0 mph30.6 kmh 30.07 in1018.3 mb 0.00 in0.0 mm 0.00 in0.0 mm 0.00 in0.0 mm
11:20 AM 59.5°F15.3°C 41.0°F5.0°C 50% 13.0 mph S20.9 kmh S 20.6 mph33.2 kmh 30.07 in1018.3 mb 0.00 in0.0 mm 0.00 in0.0 mm 0.00 in0.0 mm
11:25 AM 59.6°F15.3°C 40.9°F4.9°C 50% 17.0 mph S27.4 kmh S 24.4 mph39.3 kmh 30.07 in1018.3 mb 0.00 in0.0 mm 0.00 in0.0 mm 0.00 in0.0 mm
11:30 AM 59.4°F15.2°C 40.8°F4.9°C 50% 13.5 mph S21.7 kmh S 21.3 mph34.3 kmh 30.06 in1017.9 mb 0.00 in0.0 mm 0.00 in0.0 mm 0.00 in0.0 mm
11:35 AM 59.5°F15.3°C 41.2°F5.1°C 51% 11.8 mph S19.0 kmh S 19.7 mph31.7 kmh 30.06 in1017.9 mb 0.00 in0.0 mm 0.00 in0.0 mm 0.00 in0.0 mm
11:40 AM 59.2°F15.1°C 40.7°F4.8°C 50% 11.3 mph S18.2 kmh S 18.3 mph29.5 kmh 30.06 in1017.9 mb 0.00 in0.0 mm 0.00 in0.0 mm 0.00 in0.0 mm
11:45 AM 58.9°F14.9°C 40.8°F4.9°C 51% 9.9 mph S15.9 kmh S 15.2 mph24.5 kmh 30.06 in1017.9 mb 0.00 in0.0 mm 0.00 in0.0 mm 0.00 in0.0 mm
11:50 AM 58.7°F14.8°C 40.6°F4.8°C 51% 11.0 mph SSE17.7 kmh SSE 15.2 mph24.5 kmh 30.06 in1017.9 mb 0.00 in0.0 mm 0.00 in0.0 mm 0.00 in0.0 mm
11:55 AM 58.6°F14.8°C 40.5°F4.7°C 51% 10.3 mph S16.6 kmh S 15.9 mph25.6 kmh 30.06 in1017.9 mb 0.00 in0.0 mm 0.00 in0.0 mm 0.00 in0.0 mm
12:00 PM 58.5°F14.7°C 40.7°F4.8°C 52% 9.8 mph S15.8 kmh S 13.6 mph21.9 kmh 30.05 in1017.6 mb 0.00 in0.0 mm 0.00 in0.0 mm 0.00 in0.0 mm
12:05 PM 58.5°F14.7°C 40.9°F4.9°C 52% 12.1 mph S19.5 kmh S 13.6 mph21.9 kmh 30.05 in1017.6 mb 0.00 in0.0 mm 0.00 in0.0 mm 0.00 in0.0 mm
12:10 PM 58.6°F14.8°C 41.0°F5.0°C 52% 6.7 mph SSE10.8 kmh SSE 9.8 mph15.8 kmh 30.05 in1017.6 mb 0.00 in0.0 mm 0.00 in0.0 mm 0.00 in0.0 mm
12:15 PM 58.7°F14.8°C 40.9°F4.9°C 52% 7.1 mph SE11.4 kmh SE 10.7 mph17.2 kmh 30.05 in1017.6 mb 0.00 in0.0 mm 0.00 in0.0 mm 0.00 in0.0 mm
12:20 PM 58.9°F14.9°C 41.0°F5.0°C 51% 6.9 mph S11.1 kmh S 9.8 mph15.8 kmh 30.05 in1017.6 mb 0.00 in0.0 mm 0.00 in0.0 mm 0.00 in0.0 mm
12:25 PM 59.1°F15.1°C 40.9°F4.9°C 51% 7.1 mph SE11.4 kmh SE 11.4 mph18.3 kmh 30.05 in1017.6 mb 0.00 in0.0 mm 0.00 in0.0 mm 0.00 in0.0 mm
12:30 PM 59.4°F15.2°C 41.1°F5.1°C 51% 5.0 mph SSE8.0 kmh SSE 7.6 mph12.2 kmh 30.04 in1017.3 mb 0.00 in0.0 mm 0.00 in0.0 mm 0.00 in0.0 mm
12:35 PM 60.0°F15.6°C 41.4°F5.2°C 50% 6.3 mph S10.1 kmh S 9.8 mph15.8 kmh 30.04 in1017.3 mb 0.00 in0.0 mm 0.00 in0.0 mm 0.00 in0.0 mm
12:40 PM 60.5°F15.8°C 41.6°F5.3°C 50% 7.4 mph S11.9 kmh S 9.8 mph15.8 kmh 30.03 in1016.9 mb 0.00 in0.0 mm 0.00 in0.0 mm 0.00 in0.0 mm
12:45 PM 60.9°F16.1°C 41.6°F5.3°C 49% 7.5 mph S12.1 kmh S 13.6 mph21.9 kmh 30.03 in1016.9 mb 0.00 in0.0 mm 0.00 in0.0 mm 0.00 in0.0 mm
12:50 PM 61.2°F16.2°C 41.4°F5.2°C 48% 9.1 mph SSW14.6 kmh SSW 13.6 mph21.9 kmh 30.03 in1016.9 mb 0.00 in0.0 mm 0.00 in0.0 mm 0.00 in0.0 mm
12:55 PM 61.5°F16.4°C 41.0°F5.0°C 47% 11.1 mph S17.9 kmh S 17.4 mph28.0 kmh 30.02 in1016.6 mb 0.00 in0.0 mm 0.00 in0.0 mm 0.00 in0.0 mm
01:00 PM 61.5°F16.4°C 40.6°F4.8°C 46% 12.1 mph S19.5 kmh S 17.4 mph28.0 kmh 30.03 in1016.9 mb 0.00 in0.0 mm 0.00 in0.0 mm 0.00 in0.0 mm
01:05 PM 61.5°F16.4°C 40.5°F4.7°C 46% 11.4 mph S18.3 kmh S 13.6 mph21.9 kmh 30.03 in1016.9 mb 0.00 in0.0 mm 0.00 in0.0 mm 0.00 in0.0 mm
01:10 PM 61.1°F16.2°C 40.2°F4.6°C 46% 14.7 mph SSW23.7 kmh SSW 20.6 mph33.2 kmh 30.03 in1016.9 mb 0.00 in0.0 mm 0.00 in0.0 mm 0.00 in0.0 mm
01:15 PM 60.9°F16.1°C 40.3°F4.6°C 47% 13.7 mph S22.0 kmh S 16.8 mph27.0 kmh 30.02 in1016.6 mb 0.00 in0.0 mm 0.00 in0.0 mm 0.00 in0.0 mm
01:20 PM 60.8°F16.0°C 40.7°F4.8°C 48% 10.1 mph SSW16.3 kmh SSW 13.0 mph20.9 kmh 30.02 in1016.6 mb 0.00 in0.0 mm 0.00 in0.0 mm 0.00 in0.0 mm
01:25 PM 60.6°F15.9°C 40.8°F4.9°C 48% 9.7 mph S15.6 kmh S 16.8 mph27.0 kmh 30.02 in1016.6 mb 0.00 in0.0 mm 0.00 in0.0 mm 0.00 in0.0 mm
01:30 PM 60.5°F15.8°C 40.7°F4.8°C 48% 8.1 mph S13.0 kmh S 11.4 mph18.3 kmh 30.02 in1016.6 mb 0.00 in0.0 mm 0.00 in0.0 mm 0.00 in0.0 mm
01:35 PM 60.5°F15.8°C 40.9°F4.9°C 48% 9.3 mph S15.0 kmh S 13.0 mph20.9 kmh 30.02 in1016.6 mb 0.00 in0.0 mm 0.00 in0.0 mm 0.00 in0.0 mm
01:40 PM 60.6°F15.9°C 41.5°F5.3°C 49% 8.7 mph S14.0 kmh S 13.0 mph20.9 kmh 30.02 in1016.6 mb 0.00 in0.0 mm 0.00 in0.0 mm 0.00 in0.0 mm
01:45 PM 61.0°F16.1°C 41.8°F5.4°C 49% 6.3 mph S10.1 kmh S 9.8 mph15.8 kmh 30.02 in1016.6 mb 0.00 in0.0 mm 0.00 in0.0 mm 0.00 in0.0 mm
01:50 PM 61.1°F16.2°C 41.8°F5.4°C 49% 7.1 mph SW11.4 kmh SW 9.8 mph15.8 kmh 30.02 in1016.6 mb 0.00 in0.0 mm 0.00 in0.0 mm 0.00 in0.0 mm
01:55 PM 61.0°F16.1°C 41.9°F5.5°C 49% 5.0 mph S8.0 kmh S 7.6 mph12.2 kmh 30.02 in1016.6 mb 0.00 in0.0 mm 0.00 in0.0 mm 0.00 in0.0 mm
02:00 PM 61.0°F16.1°C 42.2°F5.7°C 50% 6.0 mph S9.7 kmh S 8.3 mph13.4 kmh 30.02 in1016.6 mb 0.00 in0.0 mm 0.00 in0.0 mm 0.00 in0.0 mm
02:05 PM 61.0°F16.1°C 42.2°F5.7°C 50% 6.9 mph W11.1 kmh W 8.3 mph13.4 kmh 30.02 in1016.6 mb 0.00 in0.0 mm 0.00 in0.0 mm 0.00 in0.0 mm
02:10 PM 60.8°F16.0°C 42.0°F5.6°C 50% 3.8 mph SSW6.1 kmh SSW 6.0 mph9.7 kmh 30.02 in1016.6 mb 0.00 in0.0 mm 0.00 in0.0 mm 0.00 in0.0 mm
02:15 PM 60.8°F16.0°C 42.1°F5.6°C 50% 2.8 mph SW4.5 kmh SW 5.4 mph8.7 kmh 30.02 in1016.6 mb 0.00 in0.0 mm 0.00 in0.0 mm 0.00 in0.0 mm
02:20 PM 60.8°F16.0°C 42.2°F5.7°C 50% 5.2 mph S8.4 kmh S 8.3 mph13.4 kmh 30.02 in1016.6 mb 0.00 in0.0 mm 0.00 in0.0 mm 0.00 in0.0 mm
02:25 PM 60.7°F15.9°C 42.0°F5.6°C 50% 6.3 mph S10.1 kmh S 9.8 mph15.8 kmh 30.02 in1016.6 mb 0.00 in0.0 mm 0.00 in0.0 mm 0.00 in0.0 mm
02:30 PM 60.6°F15.9°C 41.9°F5.5°C 50% 5.4 mph SW8.7 kmh SW 7.6 mph12.2 kmh 30.02 in1016.6 mb 0.00 in0.0 mm 0.00 in0.0 mm 0.00 in0.0 mm
02:35 PM 60.5°F15.8°C 41.7°F5.4°C 50% 5.4 mph SSW8.7 kmh SSW 9.2 mph14.8 kmh 30.02 in1016.6 mb 0.00 in0.0 mm 0.00 in0.0 mm 0.00 in0.0 mm
02:40 PM 60.4°F15.8°C 41.7°F5.4°C 50% 6.6 mph S10.6 kmh S 9.2 mph14.8 kmh 30.02 in1016.6 mb 0.00 in0.0 mm 0.00 in0.0 mm 0.00 in0.0 mm
02:45 PM 60.3°F15.7°C 41.5°F5.3°C 50% 4.6 mph S7.4 kmh S 7.6 mph12.2 kmh 30.02 in1016.6 mb 0.00 in0.0 mm 0.00 in0.0 mm 0.00 in0.0 mm
02:50 PM 60.2°F15.7°C 41.5°F5.3°C 50% 5.6 mph SSW9.0 kmh SSW 8.3 mph13.4 kmh 30.02 in1016.6 mb 0.00 in0.0 mm 0.00 in0.0 mm 0.00 in0.0 mm
02:55 PM 60.1°F15.6°C 41.4°F5.2°C 50% 5.4 mph S8.7 kmh S 8.3 mph13.4 kmh 30.02 in1016.6 mb 0.00 in0.0 mm 0.00 in0.0 mm 0.00 in0.0 mm
03:00 PM 60.1°F15.6°C 41.9°F5.5°C 51% 4.1 mph S6.6 kmh S 6.0 mph9.7 kmh 30.02 in1016.6 mb 0.00 in0.0 mm 0.00 in0.0 mm 0.00 in0.0 mm
03:05 PM 60.1°F15.6°C 41.9°F5.5°C 51% 3.8 mph S6.1 kmh S 5.4 mph8.7 kmh 30.02 in1016.6 mb 0.00 in0.0 mm 0.00 in0.0 mm 0.00 in0.0 mm
03:10 PM 59.9°F15.5°C 41.7°F5.4°C 51% 3.5 mph S5.6 kmh S 5.4 mph8.7 kmh 30.02 in1016.6 mb 0.00 in0.0 mm 0.00 in0.0 mm 0.00 in0.0 mm
03:15 PM 59.7°F15.4°C 41.5°F5.3°C 51% 4.3 mph SSE6.9 kmh SSE 6.0 mph9.7 kmh 30.02 in1016.6 mb 0.00 in0.0 mm 0.00 in0.0 mm 0.00 in0.0 mm
03:20 PM 59.5°F15.3°C 41.3°F5.2°C 51% 3.5 mph SSE5.6 kmh SSE 6.0 mph9.7 kmh 30.02 in1016.6 mb 0.00 in0.0 mm 0.00 in0.0 mm 0.00 in0.0 mm
03:25 PM 59.3°F15.2°C 41.2°F5.1°C 51% 4.2 mph SW6.8 kmh SW 6.9 mph11.1 kmh 30.02 in1016.6 mb 0.00 in0.0 mm 0.00 in0.0 mm 0.00 in0.0 mm
03:30 PM 59.1°F15.1°C 41.0°F5.0°C 51% 5.8 mph SW9.3 kmh SW 8.3 mph13.4 kmh 30.02 in1016.6 mb 0.00 in0.0 mm 0.00 in0.0 mm 0.00 in0.0 mm
03:35 PM 59.0°F15.0°C 41.0°F5.0°C 51% 4.6 mph SW7.4 kmh SW 8.3 mph13.4 kmh 30.02 in1016.6 mb 0.00 in0.0 mm 0.00 in0.0 mm 0.00 in0.0 mm
03:40 PM 58.9°F14.9°C 41.3°F5.2°C 52% 5.8 mph SSW9.3 kmh SSW 8.3 mph13.4 kmh 30.02 in1016.6 mb 0.00 in0.0 mm 0.00 in0.0 mm 0.00 in0.0 mm
03:45 PM 58.8°F14.9°C 41.2°F5.1°C 52% 2.6 mph SSW4.2 kmh SSW 5.4 mph8.7 kmh 30.02 in1016.6 mb 0.00 in0.0 mm 0.00 in0.0 mm 0.00 in0.0 mm
03:50 PM 58.5°F14.7°C 41.0°F5.0°C 52% 2.7 mph E4.3 kmh E 5.4 mph8.7 kmh 30.02 in1016.6 mb 0.00 in0.0 mm 0.00 in0.0 mm 0.00 in0.0 mm
03:55 PM 58.1°F14.5°C 41.0°F5.0°C 53% 2.4 mph NNE3.9 kmh NNE 4.5 mph7.2 kmh 30.02 in1016.6 mb 0.00 in0.0 mm 0.00 in0.0 mm 0.00 in0.0 mm
04:00 PM 57.3°F14.1°C 40.7°F4.8°C 54% 3.0 mph NE4.8 kmh NE 4.5 mph7.2 kmh 30.02 in1016.6 mb 0.00 in0.0 mm 0.00 in0.0 mm 0.00 in0.0 mm
04:05 PM 56.8°F13.8°C 40.8°F4.9°C 55% 3.1 mph NE5.0 kmh NE 3.8 mph6.1 kmh 30.02 in1016.6 mb 0.00 in0.0 mm 0.00 in0.0 mm 0.00 in0.0 mm
04:10 PM 55.9°F13.3°C 40.4°F4.7°C 56% 3.6 mph NNE5.8 kmh NNE 5.4 mph8.7 kmh 30.02 in1016.6 mb 0.00 in0.0 mm 0.00 in0.0 mm 0.00 in0.0 mm
04:15 PM 54.4°F12.4°C 41.3°F5.2°C 61% 5.2 mph 8.4 kmh 6.9 mph11.1 kmh 30.02 in1016.6 mb 0.00 in0.0 mm 0.00 in0.0 mm 0.00 in0.0 mm
04:20 PM 53.8°F12.1°C 41.1°F5.1°C 62% 3.8 mph NE6.1 kmh NE 5.4 mph8.7 kmh 30.02 in1016.6 mb 0.00 in0.0 mm 0.00 in0.0 mm 0.00 in0.0 mm
04:25 PM 53.4°F11.9°C 41.0°F5.0°C 63% 2.8 mph NE4.5 kmh NE 4.5 mph7.2 kmh 30.02 in1016.6 mb 0.00 in0.0 mm 0.00 in0.0 mm 0.00 in0.0 mm
04:30 PM 52.7°F11.5°C 40.9°F4.9°C 64% 2.9 mph NE4.7 kmh NE 3.8 mph6.1 kmh 30.02 in1016.6 mb 0.00 in0.0 mm 0.00 in0.0 mm 0.00 in0.0 mm
04:35 PM 52.0°F11.1°C 40.6°F4.8°C 65% 2.9 mph NE4.7 kmh NE 4.5 mph7.2 kmh 30.02 in1016.6 mb 0.00 in0.0 mm 0.00 in0.0 mm 0.00 in0.0 mm
04:40 PM 51.5°F10.8°C 40.6°F4.8°C 66% 2.7 mph N4.3 kmh N 3.8 mph6.1 kmh 30.02 in1016.6 mb 0.00 in0.0 mm 0.00 in0.0 mm 0.00 in0.0 mm
04:45 PM 51.1°F10.6°C 40.6°F4.8°C 67% 2.4 mph NNE3.9 kmh NNE 3.8 mph6.1 kmh 30.02 in1016.6 mb 0.00 in0.0 mm 0.00 in0.0 mm 0.00 in0.0 mm
04:50 PM 50.7°F10.4°C 40.6°F4.8°C 68% 2.6 mph N4.2 kmh N 3.8 mph6.1 kmh 30.02 in1016.6 mb 0.00 in0.0 mm 0.00 in0.0 mm 0.00 in0.0 mm
04:55 PM 50.3°F10.2°C 40.5°F4.7°C 69% 2.9 mph NE4.7 kmh NE 4.5 mph7.2 kmh 30.02 in1016.6 mb 0.00 in0.0 mm 0.00 in0.0 mm 0.00 in0.0 mm
05:00 PM 49.8°F9.9°C 40.4°F4.7°C 70% 3.1 mph NE5.0 kmh NE 5.4 mph8.7 kmh 30.02 in1016.6 mb 0.00 in0.0 mm 0.00 in0.0 mm 0.00 in0.0 mm
05:05 PM 49.3°F9.6°C 39.9°F4.4°C 70% 2.7 mph NE4.3 kmh NE 3.8 mph6.1 kmh 30.03 in1016.9 mb 0.00 in0.0 mm 0.00 in0.0 mm 0.00 in0.0 mm
05:10 PM 48.8°F9.3°C 39.4°F4.1°C 70% 2.4 mph NE3.9 kmh NE 4.5 mph7.2 kmh 30.02 in1016.6 mb 0.00 in0.0 mm 0.00 in0.0 mm 0.00 in0.0 mm
05:15 PM 48.4°F9.1°C 39.2°F4.0°C 70% 2.5 mph NE4.0 kmh NE 4.5 mph7.2 kmh 30.03 in1016.9 mb 0.00 in0.0 mm 0.00 in0.0 mm 0.00 in0.0 mm
05:20 PM 48.0°F8.9°C 39.0°F3.9°C 71% 1.0 mph ENE1.6 kmh ENE 3.1 mph5.0 kmh 30.03 in1016.9 mb 0.00 in0.0 mm 0.00 in0.0 mm 0.00 in0.0 mm
05:25 PM 47.7°F8.7°C 39.0°F3.9°C 72% 2.3 mph NE3.7 kmh NE 3.8 mph6.1 kmh 30.02 in1016.6 mb 0.00 in0.0 mm 0.00 in0.0 mm 0.00 in0.0 mm
05:30 PM 47.4°F8.6°C 39.0°F3.9°C 72% 2.7 mph NE4.3 kmh NE 3.8 mph6.1 kmh 30.02 in1016.6 mb 0.00 in0.0 mm 0.00 in0.0 mm 0.00 in0.0 mm
05:35 PM 47.2°F8.4°C 39.0°F3.9°C 73% 1.7 mph NE2.7 kmh NE 3.1 mph5.0 kmh 30.02 in1016.6 mb 0.00 in0.0 mm 0.00 in0.0 mm 0.00 in0.0 mm
05:40 PM 47.0°F8.3°C 38.8°F3.8°C 73% 2.7 mph NE4.3 kmh NE 3.8 mph6.1 kmh 30.02 in1016.6 mb 0.00 in0.0 mm 0.00 in0.0 mm 0.00 in0.0 mm
05:45 PM 46.8°F8.2°C 38.7°F3.7°C 73% 2.1 mph NE3.4 kmh NE 3.1 mph5.0 kmh 30.02 in1016.6 mb 0.00 in0.0 mm 0.00 in0.0 mm 0.00 in0.0 mm
05:50 PM 46.6°F8.1°C 38.7°F3.7°C 74% 1.2 mph NE1.9 kmh NE 2.2 mph3.5 kmh 30.02 in1016.6 mb 0.00 in0.0 mm 0.00 in0.0 mm 0.00 in0.0 mm
05:55 PM 46.3°F7.9°C 38.5°F3.6°C 74% 0.7 mph 1.1 kmh 1.6 mph2.6 kmh 30.02 in1016.6 mb 0.00 in0.0 mm 0.00 in0.0 mm 0.00 in0.0 mm
06:00 PM 46.1°F7.8°C 38.1°F3.4°C 74% 0.7 mph N1.1 kmh N 2.2 mph3.5 kmh 30.02 in1016.6 mb 0.00 in0.0 mm 0.00 in0.0 mm 0.00 in0.0 mm
06:05 PM 46.0°F7.8°C 37.9°F3.3°C 73% 1.6 mph 2.6 kmh 2.2 mph3.5 kmh 30.02 in1016.6 mb 0.00 in0.0 mm 0.00 in0.0 mm 0.00 in0.0 mm
06:10 PM 45.8°F7.7°C 39.1°F3.9°C 77% 2.0 mph NNE3.2 kmh NNE 3.8 mph6.1 kmh 30.02 in1016.6 mb 0.00 in0.0 mm 0.00 in0.0 mm 0.00 in0.0 mm
06:15 PM 45.7°F7.6°C 40.0°F4.4°C 80% 3.1 mph NE5.0 kmh NE 3.8 mph6.1 kmh 30.02 in1016.6 mb 0.00 in0.0 mm 0.00 in0.0 mm 0.00 in0.0 mm
06:20 PM 45.7°F7.6°C 40.2°F4.6°C 81% 2.4 mph NE3.9 kmh NE 3.8 mph6.1 kmh 30.02 in1016.6 mb 0.00 in0.0 mm 0.00 in0.0 mm 0.00 in0.0 mm
06:25 PM 45.7°F7.6°C 40.2°F4.6°C 81% 3.2 mph NE5.1 kmh NE 4.5 mph7.2 kmh 30.02 in1016.6 mb 0.00 in0.0 mm 0.00 in0.0 mm 0.00 in0.0 mm
06:30 PM 45.5°F7.5°C 40.3°F4.6°C 82% 3.1 mph NE5.0 kmh NE 3.8 mph6.1 kmh 30.02 in1016.6 mb 0.00 in0.0 mm 0.00 in0.0 mm 0.00 in0.0 mm
06:35 PM 45.3°F7.4°C 40.1°F4.5°C 82% 1.9 mph NE3.1 kmh NE 3.8 mph6.1 kmh 30.02 in1016.6 mb 0.00 in0.0 mm 0.00 in0.0 mm 0.00 in0.0 mm
06:40 PM 45.1°F7.3°C 40.0°F4.4°C 82% 1.5 mph NNE2.4 kmh NNE 3.1 mph5.0 kmh 30.02 in1016.6 mb 0.00 in0.0 mm 0.00 in0.0 mm 0.00 in0.0 mm
06:45 PM 45.1°F7.3°C 39.9°F4.4°C 82% 1.1 mph 1.8 kmh 2.2 mph3.5 kmh 30.02 in1016.6 mb 0.00 in0.0 mm 0.00 in0.0 mm 0.00 in0.0 mm
06:50 PM 45.0°F7.2°C 39.8°F4.3°C 82% 0.3 mph NE0.5 kmh NE 2.2 mph3.5 kmh 30.01 in1016.3 mb 0.00 in0.0 mm 0.00 in0.0 mm 0.00 in0.0 mm
06:55 PM 44.8°F7.1°C 39.6°F4.2°C 82% 1.6 mph NE2.6 kmh NE 3.1 mph5.0 kmh 30.02 in1016.6 mb 0.00 in0.0 mm 0.00 in0.0 mm 0.00 in0.0 mm
07:00 PM 44.5°F6.9°C 39.1°F3.9°C 81% 2.3 mph NE3.7 kmh NE 3.8 mph6.1 kmh 30.02 in1016.6 mb 0.00 in0.0 mm 0.00 in0.0 mm 0.00 in0.0 mm
07:05 PM 44.3°F6.8°C 38.9°F3.8°C 81% 2.3 mph NE3.7 kmh NE 3.8 mph6.1 kmh 30.02 in1016.6 mb 0.00 in0.0 mm 0.00 in0.0 mm 0.00 in0.0 mm
07:10 PM 44.2°F6.8°C 38.9°F3.8°C 81% 2.1 mph NE3.4 kmh NE 3.8 mph6.1 kmh 30.02 in1016.6 mb 0.00 in0.0 mm 0.00 in0.0 mm 0.00 in0.0 mm
07:15 PM 44.2°F6.8°C 39.1°F3.9°C 82% 2.2 mph NE3.5 kmh NE 3.1 mph5.0 kmh 30.02 in1016.6 mb 0.00 in0.0 mm 0.00 in0.0 mm 0.00 in0.0 mm
07:20 PM 44.2°F6.8°C 39.1°F3.9°C 82% 2.2 mph NE3.5 kmh NE 3.1 mph5.0 kmh 30.02 in1016.6 mb 0.00 in0.0 mm 0.00 in0.0 mm 0.00 in0.0 mm
07:25 PM 44.2°F6.8°C 39.2°F4.0°C 82% 2.0 mph NE3.2 kmh NE 3.1 mph5.0 kmh 30.02 in1016.6 mb 0.00 in0.0 mm 0.00 in0.0 mm 0.00 in0.0 mm
07:30 PM 44.1°F6.7°C 39.3°F4.1°C 83% 1.1 mph NNE1.8 kmh NNE 2.2 mph3.5 kmh 30.02 in1016.6 mb 0.00 in0.0 mm 0.00 in0.0 mm 0.00 in0.0 mm
07:35 PM 44.0°F6.7°C 39.1°F3.9°C 83% 1.3 mph NE2.1 kmh NE 2.2 mph3.5 kmh 30.02 in1016.6 mb 0.00 in0.0 mm 0.00 in0.0 mm 0.00 in0.0 mm
07:40 PM 43.8°F6.6°C 38.7°F3.7°C 82% 1.4 mph NNE2.3 kmh NNE 3.1 mph5.0 kmh 30.02 in1016.6 mb 0.00 in0.0 mm 0.00 in0.0 mm 0.00 in0.0 mm
07:45 PM 43.6°F6.4°C 38.5°F3.6°C 82% 1.3 mph NE2.1 kmh NE 2.2 mph3.5 kmh 30.02 in1016.6 mb 0.00 in0.0 mm 0.00 in0.0 mm 0.00 in0.0 mm
07:50 PM 43.4°F6.3°C 38.3°F3.5°C 82% 1.6 mph NE2.6 kmh NE 2.2 mph3.5 kmh 30.02 in1016.6 mb 0.00 in0.0 mm 0.00 in0.0 mm 0.00 in0.0 mm
07:55 PM 43.3°F6.3°C 38.2°F3.4°C 82% 1.6 mph NE2.6 kmh NE 2.2 mph3.5 kmh 30.02 in1016.6 mb 0.00 in0.0 mm 0.00 in0.0 mm 0.00 in0.0 mm
08:00 PM 43.3°F6.3°C 38.4°F3.6°C 82% 0.6 mph NE1.0 kmh NE 2.2 mph3.5 kmh 30.02 in1016.6 mb 0.00 in0.0 mm 0.00 in0.0 mm 0.00 in0.0 mm
08:05 PM 43.3°F6.3°C 38.5°F3.6°C 83% 0.7 mph NE1.1 kmh NE 1.6 mph2.6 kmh 30.02 in1016.6 mb 0.00 in0.0 mm 0.00 in0.0 mm 0.00 in0.0 mm
08:10 PM 43.2°F6.2°C 38.4°F3.6°C 83% 1.3 mph WNW2.1 kmh WNW 3.1 mph5.0 kmh 30.02 in1016.6 mb 0.00 in0.0 mm 0.00 in0.0 mm 0.00 in0.0 mm
08:15 PM 43.0°F6.1°C 38.2°F3.4°C 83% 1.2 mph NNE1.9 kmh NNE 3.1 mph5.0 kmh 30.02 in1016.6 mb 0.00 in0.0 mm 0.00 in0.0 mm 0.00 in0.0 mm
08:20 PM 42.9°F6.1°C 38.1°F3.4°C 83% 1.0 mph NE1.6 kmh NE 2.2 mph3.5 kmh 30.02 in1016.6 mb 0.00 in0.0 mm 0.00 in0.0 mm 0.00 in0.0 mm
08:25 PM 42.7°F5.9°C 37.7°F3.2°C 83% 0.9 mph NNE1.4 kmh NNE 2.2 mph3.5 kmh 30.01 in1016.3 mb 0.00 in0.0 mm 0.00 in0.0 mm 0.00 in0.0 mm
08:30 PM 42.5°F5.8°C 37.4°F3.0°C 82% 1.1 mph NNE1.8 kmh NNE 3.1 mph5.0 kmh 30.01 in1016.3 mb 0.00 in0.0 mm 0.00 in0.0 mm 0.00 in0.0 mm
08:35 PM 42.4°F5.8°C 37.5°F3.1°C 82% 1.3 mph NNE2.1 kmh NNE 3.1 mph5.0 kmh 30.01 in1016.3 mb 0.00 in0.0 mm 0.00 in0.0 mm 0.00 in0.0 mm
08:40 PM 42.3°F5.7°C 37.5°F3.1°C 83% 0.5 mph E0.8 kmh E 2.2 mph3.5 kmh 30.01 in1016.3 mb 0.00 in0.0 mm 0.00 in0.0 mm 0.00 in0.0 mm
08:45 PM 42.1°F5.6°C 37.3°F2.9°C 83% 0.7 mph ENE1.1 kmh ENE 2.2 mph3.5 kmh 30.01 in1016.3 mb 0.00 in0.0 mm 0.00 in0.0 mm 0.00 in0.0 mm
08:50 PM 42.0°F5.6°C 37.2°F2.9°C 83% 0.2 mph 0.3 kmh 1.6 mph2.6 kmh 30.01 in1016.3 mb 0.00 in0.0 mm 0.00 in0.0 mm 0.00 in0.0 mm
08:55 PM 41.9°F5.5°C 37.1°F2.8°C 83% Calm Calm -- 30.01 in1016.3 mb 0.00 in0.0 mm 0.00 in0.0 mm 0.00 in0.0 mm
09:00 PM 41.9°F5.5°C 37.1°F2.8°C 83% 1.4 mph NE2.3 kmh NE 3.1 mph5.0 kmh 30.01 in1016.3 mb 0.00 in0.0 mm 0.00 in0.0 mm 0.00 in0.0 mm
09:05 PM 41.9°F5.5°C 37.1°F2.8°C 83% 2.2 mph NE3.5 kmh NE 3.1 mph5.0 kmh 30.01 in1016.3 mb 0.00 in0.0 mm 0.00 in0.0 mm 0.00 in0.0 mm
09:10 PM 41.9°F5.5°C 37.1°F2.8°C 83% 2.7 mph N4.3 kmh N 3.8 mph6.1 kmh 30.01 in1016.3 mb 0.00 in0.0 mm 0.00 in0.0 mm 0.00 in0.0 mm
09:15 PM 41.9°F5.5°C 37.1°F2.8°C 83% 2.7 mph NNE4.3 kmh NNE 3.8 mph6.1 kmh 30.01 in1016.3 mb 0.00 in0.0 mm 0.00 in0.0 mm 0.00 in0.0 mm
09:20 PM 41.9°F5.5°C 37.3°F2.9°C 84% 1.3 mph N2.1 kmh N 3.1 mph5.0 kmh 30.01 in1016.3 mb 0.00 in0.0 mm 0.00 in0.0 mm 0.00 in0.0 mm
09:25 PM 41.7°F5.4°C 37.2°F2.9°C 84% 0.9 mph N1.4 kmh N 2.2 mph3.5 kmh 30.01 in1016.3 mb 0.00 in0.0 mm 0.00 in0.0 mm 0.00 in0.0 mm
09:30 PM 41.6°F5.3°C 37.2°F2.9°C 84% 0.5 mph W0.8 kmh W 1.6 mph2.6 kmh 30.01 in1016.3 mb 0.00 in0.0 mm 0.00 in0.0 mm 0.00 in0.0 mm
09:35 PM 41.4°F5.2°C 36.6°F2.6°C 83% 0.3 mph E0.5 kmh E 1.6 mph2.6 kmh 30.01 in1016.3 mb 0.00 in0.0 mm 0.00 in0.0 mm 0.00 in0.0 mm
09:40 PM 41.1°F5.1°C 36.3°F2.4°C 83% 0.7 mph NNE1.1 kmh NNE 1.6 mph2.6 kmh 30.01 in1016.3 mb 0.00 in0.0 mm 0.00 in0.0 mm 0.00 in0.0 mm
09:45 PM 40.9°F4.9°C 36.1°F2.3°C 83% 0.8 mph NE1.3 kmh NE 2.2 mph3.5 kmh 30.01 in1016.3 mb 0.00 in0.0 mm 0.00 in0.0 mm 0.00 in0.0 mm
09:50 PM 40.5°F4.7°C 35.8°F2.1°C 83% 1.8 mph NNE2.9 kmh NNE 3.1 mph5.0 kmh 30.01 in1016.3 mb 0.00 in0.0 mm 0.00 in0.0 mm 0.00 in0.0 mm
09:55 PM 40.3°F4.6°C 35.5°F1.9°C 83% 1.7 mph NNE2.7 kmh NNE 3.1 mph5.0 kmh 30.01 in1016.3 mb 0.00 in0.0 mm 0.00 in0.0 mm 0.00 in0.0 mm
10:00 PM 40.0°F4.4°C 35.3°F1.8°C 83% 1.2 mph NE1.9 kmh NE 2.2 mph3.5 kmh 30.01 in1016.3 mb 0.00 in0.0 mm 0.00 in0.0 mm 0.00 in0.0 mm
10:05 PM 39.9°F4.4°C 35.2°F1.8°C 83% 1.6 mph NE2.6 kmh NE 2.2 mph3.5 kmh 30.01 in1016.3 mb 0.00 in0.0 mm 0.00 in0.0 mm 0.00 in0.0 mm
10:10 PM 39.8°F4.3°C 35.1°F1.7°C 83% 1.8 mph NE2.9 kmh NE 3.1 mph5.0 kmh 30.01 in1016.3 mb 0.00 in0.0 mm 0.00 in0.0 mm 0.00 in0.0 mm
10:15 PM 39.7°F4.3°C 35.0°F1.7°C 83% 0.7 mph NE1.1 kmh NE 1.6 mph2.6 kmh 30.01 in1016.3 mb 0.00 in0.0 mm 0.00 in0.0 mm 0.00 in0.0 mm
10:20 PM 39.7°F4.3°C 34.9°F1.6°C 83% 0.7 mph NE1.1 kmh NE 1.6 mph2.6 kmh 30.01 in1016.3 mb 0.00 in0.0 mm 0.00 in0.0 mm 0.00 in0.0 mm
10:25 PM 39.6°F4.2°C 34.8°F1.6°C 83% 1.6 mph NE2.6 kmh NE 2.2 mph3.5 kmh 30.01 in1016.3 mb 0.00 in0.0 mm 0.00 in0.0 mm 0.00 in0.0 mm
10:30 PM 39.6°F4.2°C 34.9°F1.6°C 83% 1.5 mph NE2.4 kmh NE 2.2 mph3.5 kmh 30.01 in1016.3 mb 0.00 in0.0 mm 0.00 in0.0 mm 0.00 in0.0 mm
10:35 PM 39.6°F4.2°C 35.2°F1.8°C 84% 0.3 mph 0.5 kmh 1.6 mph2.6 kmh 30.01 in1016.3 mb 0.00 in0.0 mm 0.00 in0.0 mm 0.00 in0.0 mm
10:40 PM 39.7°F4.3°C 35.3°F1.8°C 84% Calm Calm -- 30.01 in1016.3 mb 0.00 in0.0 mm 0.00 in0.0 mm 0.00 in0.0 mm
10:45 PM 39.8°F4.3°C 35.4°F1.9°C 84% Calm Calm -- 30.01 in1016.3 mb 0.00 in0.0 mm 0.00 in0.0 mm 0.00 in0.0 mm
10:50 PM 39.9°F4.4°C 35.5°F1.9°C 84% 1.3 mph NE2.1 kmh NE 2.2 mph3.5 kmh 30.01 in1016.3 mb 0.00 in0.0 mm 0.00 in0.0 mm 0.00 in0.0 mm
10:55 PM 39.9°F4.4°C 35.5°F1.9°C 84% 1.3 mph 2.1 kmh 2.2 mph3.5 kmh 30.00 in1015.9 mb 0.00 in0.0 mm 0.00 in0.0 mm 0.00 in0.0 mm
11:00 PM 40.1°F4.5°C 35.7°F2.1°C 84% 0.5 mph 0.8 kmh 1.6 mph2.6 kmh 30.01 in1016.3 mb 0.00 in0.0 mm 0.00 in0.0 mm 0.00 in0.0 mm
11:05 PM 40.0°F4.4°C 35.6°F2.0°C 84% 1.3 mph NE2.1 kmh NE 3.1 mph5.0 kmh 30.00 in1015.9 mb 0.00 in0.0 mm 0.00 in0.0 mm 0.00 in0.0 mm
11:10 PM 39.8°F4.3°C 35.4°F1.9°C 84% 2.0 mph NE3.2 kmh NE 3.1 mph5.0 kmh 30.01 in1016.3 mb 0.00 in0.0 mm 0.00 in0.0 mm 0.00 in0.0 mm
11:15 PM 39.5°F4.2°C 35.1°F1.7°C 84% 1.9 mph NNE3.1 kmh NNE 3.8 mph6.1 kmh 30.00 in1015.9 mb 0.00 in0.0 mm 0.00 in0.0 mm 0.00 in0.0 mm
11:20 PM 39.3°F4.1°C 34.8°F1.6°C 84% Calm Calm 0.7 mph1.1 kmh 30.01 in1016.3 mb 0.00 in0.0 mm 0.00 in0.0 mm 0.00 in0.0 mm
11:25 PM 39.0°F3.9°C 34.6°F1.4°C 84% 1.2 mph NE1.9 kmh NE 3.1 mph5.0 kmh 30.01 in1016.3 mb 0.00 in0.0 mm 0.00 in0.0 mm 0.00 in0.0 mm
11:30 PM 39.0°F3.9°C 34.6°F1.4°C 84% 0.8 mph 1.3 kmh 1.6 mph2.6 kmh 30.01 in1016.3 mb 0.00 in0.0 mm 0.00 in0.0 mm 0.00 in0.0 mm
11:35 PM 38.8°F3.8°C 34.4°F1.3°C 84% 0.4 mph NE0.6 kmh NE 1.6 mph2.6 kmh 30.01 in1016.3 mb 0.00 in0.0 mm 0.00 in0.0 mm 0.00 in0.0 mm
11:40 PM 38.8°F3.8°C 34.4°F1.3°C 84% 1.1 mph N1.8 kmh N 2.2 mph3.5 kmh 30.01 in1016.3 mb 0.00 in0.0 mm 0.00 in0.0 mm 0.00 in0.0 mm
11:45 PM 38.8°F3.8°C 34.4°F1.3°C 84% 0.8 mph N1.3 kmh N 2.2 mph3.5 kmh 30.01 in1016.3 mb 0.00 in0.0 mm 0.00 in0.0 mm 0.00 in0.0 mm
11:50 PM 38.8°F3.8°C 34.4°F1.3°C 84% 1.9 mph NE3.1 kmh NE 3.1 mph5.0 kmh 30.01 in1016.3 mb 0.00 in0.0 mm 0.00 in0.0 mm 0.00 in0.0 mm
11:55 PM 38.7°F3.7°C 34.3°F1.3°C 84% 0.9 mph 1.4 kmh 2.2 mph3.5 kmh 30.00 in1015.9 mb 0.00 in0.0 mm 0.00 in0.0 mm 0.00 in0.0 mm